Due to severe server failure at the provider, not all demo sites are operational. Will take some days to rebuilt everything.

Demonstration site - Click on the  for more information

This is an optional block. Switch it on/off in your settings-file: $SITE['bannerTop'] = false; or $SITE['bannerBottom'] = false;

You can display ads, any other important text or photo’s using text / html or PHP code.

You can place one or more at the top and or bottom and it can all be different for content / size .



Visit our other weather sites:

Template documentation
and downloads

And another site



Earthquakes in the past 7 days

Earthquakes in the past 7 days of magnitude 2.0 or greater within 15000 km
Update time = 17-01-2021 04:53

Epicenter Near Magnitude Distance to Epicenter Local Time Link
12 km SW of Olancha, CA 2.4 0088248824 km 161085430617-01-2021 03:31 map
13 km SW of Olancha, CA 3.2 0088248824 km 161085423217-01-2021 03:30 map
13 km SW of Olancha, CA 3.8 0088258825 km 161085328917-01-2021 03:14 map
13 km SW of Olancha, CA 2.4 0088248824 km 161085227217-01-2021 02:57 map
13 km SW of Olancha, CA 2.4 0088248824 km 161085199217-01-2021 02:53 map
7 km W of Houston, Alaska 2.1 0073027302 km 161085197317-01-2021 02:52 map
47 km NE of Bandar-e Lengeh, Iran 4.7 0050135013 km 161085181717-01-2021 02:50 map
25 km W of Petersville, Alaska 2.0 0072307230 km 161085179017-01-2021 02:49 map
13 km SW of Olancha, CA 4.0 0088248824 km 161085174817-01-2021 02:49 map
12 km N of Viola, CA 2.2 0085738573 km 161084875417-01-2021 01:59 map
10 km N of Viola, CA 2.9 0085748574 km 161084830317-01-2021 01:51 map
74 km NE of Cruz Bay, U.S. Virgin Islands 3.4 0069076907 km 161084829317-01-2021 01:51 map
4 km SSW of Indios, Puerto Rico 2.0 0071557155 km 161084739917-01-2021 01:36 map
7 km ESE of Puebla, B.C., MX 2.2 0090219021 km 161084640017-01-2021 01:20 map
41 km E of Yakutat, Alaska 2.2 0072987298 km 161084615617-01-2021 01:15 map
138 km ESE of Iwaki, Japan 4.5 0094549454 km 161084591417-01-2021 01:11 map
84 km SW of Santiago, Peru 4.2 01062910629 km 161084550917-01-2021 01:05 map
Russia-Mongolia border region 4.3 0061926192 km 161084499417-01-2021 00:56 map
7 km ENE of Pāhala, Hawaii 2.1 01197411974 km 161084490417-01-2021 00:55 map
7 km WSW of Guánica, Puerto Rico 2.7 0071657165 km 161084272917-01-2021 00:18 map
63 km NNE of Tanana, Alaska 2.0 0068936893 km 161084262417-01-2021 00:17 map
10 km SSW of Tallaboa, Puerto Rico 2.8 0071547154 km 161084126516-01-2021 23:54 map
South Sandwich Islands region 4.8 01237212372 km 161083971516-01-2021 23:28 map
63 km W of Austin, Nevada 2.9 0085058505 km 161083968416-01-2021 23:28 map
89 km NE of Hengchun, Taiwan 5.1 0098049804 km 161083865816-01-2021 23:10 map
16 km ENE of Indio, CA 2.3 0089468946 km 161083614116-01-2021 22:29 map
25 km NW of Hayfork, CA 2.3 0086428642 km 161083207316-01-2021 21:21 map
21 km NNE of Susitna North, Alaska 2.2 0072227222 km 161083029716-01-2021 20:51 map
49 km NE of Khawhai, India 4.3 0079367936 km 161083009316-01-2021 20:48 map
6 km E of La Parguera, Puerto Rico 2.1 0071647164 km 161082981316-01-2021 20:43 map
15 km WNW of Progreso, B.C., MX 2.3 0090369036 km 161082819016-01-2021 20:16 map
38 km SSW of Jurm, Afghanistan 5.5 0053755375 km 161082736516-01-2021 20:02 map
8 km S of Progreso, B.C., MX 2.4 0090419041 km 161082721116-01-2021 20:00 map
11 km W of Hennessey, Oklahoma 2.4 0077437743 km 161082625016-01-2021 19:44 map
4 km ESE of Pāhala, Hawaii 2.1 01197911979 km 161082523616-01-2021 19:27 map
41 km NNE of Toms Place, CA 2.2 0086858685 km 161082464216-01-2021 19:17 map
7 km N of Woodward, Oklahoma 2.2 0077927792 km 161082407216-01-2021 19:07 map
2 km SSW of Guánica, Puerto Rico 2.2 0071617161 km 161082380516-01-2021 19:03 map
31 km SE of Mina, Nevada 2.0 0086298629 km 161082323516-01-2021 18:53 map
9 km E of Pāhala, Hawaii 2.0 01197511975 km 161081778116-01-2021 17:23 map
47 km SSE of Salina Cruz, Mexico 4.6 0092959295 km 161081681316-01-2021 17:06 map
9 km SE of Puebla, B.C., MX 2.0 0090249024 km 161081671916-01-2021 17:05 map
35 km SE of Pedro Bay, Alaska 2.5 0075777577 km 161081620416-01-2021 16:56 map
102 km N of Charlotte Amalie, U.S. Virgin Islands 3.4 0069106910 km 161081327716-01-2021 16:07 map
Off the coast of Aisen, Chile 4.2 01330113301 km 161080994316-01-2021 15:12 map
10 km SSE of Guánica, Puerto Rico 2.3 0071637163 km 161080817816-01-2021 14:42 map
11 km NE of Pāhala, Hawaii 2.3 01197011970 km 161080667716-01-2021 14:17 map
3 km NW of Coyle, Oklahoma 2.0 0077107710 km 161080487516-01-2021 13:47 map
Southern Alaska 2.2 0074927492 km 161080038816-01-2021 12:33 map
Pagan region, Northern Mariana Islands 4.6 01139111391 km 161079994116-01-2021 12:25 map
11 km ENE of Pāhala, Hawaii 2.5 01197411974 km 161079702416-01-2021 11:37 map
6 km ESE of La Parguera, Puerto Rico 2.2 0071667166 km 161079572716-01-2021 11:15 map
34 km ENE of Chenega, Alaska 2.3 0074087408 km 161079470716-01-2021 10:58 map
30 km E of Pedro Bay, Alaska 2.3 0075517551 km 161079400916-01-2021 10:46 map
10 km SSW of Esmeraldas, Ecuador 4.5 0095139513 km 161079382116-01-2021 10:43 map
40 km NNE of Toms Place, CA 2.6 0086858685 km 161079350616-01-2021 10:38 map
23 km S of Mina, Nevada 2.5 0086378637 km 161079315816-01-2021 10:32 map
52 km NNE of Petersville, Alaska 2.1 0071707170 km 161079209816-01-2021 10:14 map
40 km NNE of Toms Place, CA 2.3 0086858685 km 161079097316-01-2021 09:56 map
21 km WNW of Stanley, Idaho 2.4 0079407940 km 161079041016-01-2021 09:46 map
18 km WSW of Kitakata, Japan 4.3 0092619261 km 161079019416-01-2021 09:43 map
2 km WSW of Indios, Puerto Rico 2.2 0071537153 km 161078947316-01-2021 09:31 map
3 km SSW of Pāhala, Hawaii 2.3 01198211982 km 161078939416-01-2021 09:29 map
185 km SW of Bandar Lampung, Indonesia 5.2 01122811228 km 161078920316-01-2021 09:26 map
2 km E of Pāhala, Hawaii 2.2 01197811978 km 161078581816-01-2021 08:30 map
80 km E of Yamada, Japan 4.6 0091819181 km 161078451616-01-2021 08:08 map
6 km SSW of Volcano, Hawaii 2.5 01195311953 km 161078440216-01-2021 08:06 map
12 km E of Naalehu, Hawaii 2.6 01199211992 km 161078419216-01-2021 08:03 map
40 km NNE of Toms Place, CA 2.4 0086868686 km 161078218216-01-2021 07:29 map
40 km NNE of Toms Place, CA 2.7 0086858685 km 161078209516-01-2021 07:28 map
13 km NW of Benton, California 2.4 0086868686 km 161078207916-01-2021 07:27 map
40 km NNE of Toms Place, CA 3.2 0086858685 km 161078136116-01-2021 07:16 map
28 km WNW of Petersville, Alaska 2.1 0072227222 km 161078128216-01-2021 07:14 map
6 km ESE of Leilani Estates, Hawaii 2.6 01193811938 km 161078061616-01-2021 07:03 map
40 km NNE of Toms Place, CA 2.8 0086858685 km 161078019316-01-2021 06:56 map
40 km NNE of Toms Place, CA 2.5 0086858685 km 161078012716-01-2021 06:55 map
5 km NNW of Benton, California 2.4 0086878687 km 161078011316-01-2021 06:55 map
39 km NNE of Toms Place, CA 3.0 0086868686 km 161077993816-01-2021 06:52 map
40 km NNE of Toms Place, CA 3.0 0086858685 km 161077992016-01-2021 06:52 map
40 km NNE of Toms Place, CA 2.1 0086858685 km 161077928516-01-2021 06:41 map
98 km NW of Kandrian, Papua New Guinea 4.9 01401214012 km 161077905116-01-2021 06:37 map
40 km NNE of Toms Place, CA 2.9 0086868686 km 161077873416-01-2021 06:32 map
40 km NNE of Toms Place, CA 2.7 0086868686 km 161077868616-01-2021 06:31 map
14 km NNE of Deerfield, Virginia 2.3 0064086408 km 161077615416-01-2021 05:49 map
119 km S of McCarthy, Alaska 2.4 0073107310 km 161077537616-01-2021 05:36 map
south of Panama 5.2 0093709370 km 161077428416-01-2021 05:18 map
south of Panama 4.3 0093999399 km 161077403616-01-2021 05:13 map
58 km SSW of Pole Ojea, Puerto Rico 3.2 0072357235 km 161077381616-01-2021 05:10 map
12 km E of Mammoth Lakes, CA 2.0 0087258725 km 161077370016-01-2021 05:08 map
31 km WSW of Venetie, Alaska 2.1 0067056705 km 161077173016-01-2021 04:35 map
54 km SSW of Ovalle, Chile 5.0 01173011730 km 161076921616-01-2021 03:53 map
25 km SE of Boca de Yuma, Dominican Republic 3.4 0072457245 km 161076896716-01-2021 03:49 map
16 km E of Ocotillo, CA 2.1 0090319031 km 161076866916-01-2021 03:44 map
175 km SW of Nikolski, Alaska 3.2 0085698569 km 161076857816-01-2021 03:42 map
73 km NW of Atka, Alaska 4.4 0084958495 km 161076826216-01-2021 03:37 map
9 km E of Pāhala, Hawaii 2.2 01197511975 km 161076800916-01-2021 03:33 map
4 km SW of Pāhala, Hawaii 2.0 01198211982 km 161076790316-01-2021 03:31 map
4 km SSW of La Parguera, Puerto Rico 2.2 0071737173 km 161076636216-01-2021 03:06 map
5 km E of La Parguera, Puerto Rico 2.9 0071657165 km 161076580516-01-2021 02:56 map
59 km N of Tanana, Alaska 2.1 0068986898 km 161076448616-01-2021 02:34 map
4 km WSW of Isabella, Oklahoma 2.7 0077567756 km 161076321616-01-2021 02:13 map
3 km SW of Guánica, Puerto Rico 2.2 0071637163 km 161076141016-01-2021 01:43 map
25 km NNW of Benton, California 2.0 0086728672 km 161075902116-01-2021 01:03 map
30 km N of Dyer, Nevada 2.0 0086588658 km 161075901316-01-2021 01:03 map
11 km E of Mammoth Lakes, CA 2.3 0087258725 km 161075840516-01-2021 00:53 map
0 km ESE of Guayanilla, Puerto Rico 2.2 0071477147 km 161075829716-01-2021 00:51 map
50 km SW of Chilca, Peru 4.6 01051910519 km 161075467415-01-2021 23:51 map
2 km WSW of Round Valley, CA 2.0 0087358735 km 161075416215-01-2021 23:42 map
115 km S of Champerico, Guatemala 4.1 0092909290 km 161075406715-01-2021 23:41 map
28 km SSE of Mamuju, Indonesia 4.9 01196311963 km 161075357215-01-2021 23:32 map
6 km ENE of Pāhala, Hawaii 2.0 01197511975 km 161075353815-01-2021 23:32 map
39 km NE of Bandar-e Lengeh, Iran 4.3 0050185018 km 161075306115-01-2021 23:24 map
108 km E of Laikit, Laikit II (Dimembe), Indonesia 5.1 01201712017 km 161075160115-01-2021 23:00 map
41 km NNE of Toms Place, CA 2.9 0086858685 km 161075101515-01-2021 22:50 map
4 km SSE of Hukay, Philippines 4.6 01056410564 km 161075093515-01-2021 22:48 map
13 km NNW of Benton, California 2.3 0086858685 km 161074910315-01-2021 22:18 map
41 km NNE of Toms Place, CA 3.9 0086858685 km 161074866715-01-2021 22:11 map
2 km NNW of Knik, Alaska 2.0 0073147314 km 161074777515-01-2021 21:56 map
28 km SSW of Champerico, Guatemala 4.9 0092389238 km 161074637815-01-2021 21:32 map
50 km NE of Bandar-e Lengeh, Iran 5.5 0050085008 km 161074626415-01-2021 21:31 map
13 km NNW of Benton, California 2.1 0086858685 km 161074520115-01-2021 21:13 map
6 km SE of Maria Antonia, Puerto Rico 2.4 0071577157 km 161074489115-01-2021 21:08 map
41 km NNE of Toms Place, CA 2.0 0086858685 km 161074362115-01-2021 20:47 map
41 km NNE of Toms Place, CA 2.4 0086858685 km 161074331315-01-2021 20:41 map
40 km NNE of Toms Place, CA 2.8 0086858685 km 161074309115-01-2021 20:38 map
108 km WNW of San Antonio de los Cobres, Argentina 4.7 01086310863 km 161074307515-01-2021 20:37 map
86 km SSE of Panguna, Papua New Guinea 5.1 01447614476 km 161074189915-01-2021 20:18 map
90 km S of Kushiro, Japan 4.3 0089668966 km 161074141315-01-2021 20:10 map
41 km NNE of Toms Place, CA 2.8 0086848684 km 161074092315-01-2021 20:02 map
41 km NNE of Toms Place, CA 2.8 0086858685 km 161074090715-01-2021 20:01 map
23 km SE of Emajagua, Puerto Rico 3.3 0070837083 km 161074042015-01-2021 19:53 map
14 km NW of Esmeraldas, Ecuador 4.8 0095049504 km 161073847615-01-2021 19:21 map
1 km E of Enetai, Washington 2.2 0079547954 km 161073826815-01-2021 19:17 map
47 km NW of Valdez, Alaska 2.3 0072807280 km 161073765815-01-2021 19:07 map
23 km SE of Emajagua, Puerto Rico 3.4 0070837083 km 161073649215-01-2021 18:48 map
10 km ENE of Pāhala, Hawaii 2.0 01197111971 km 161073559715-01-2021 18:33 map
1 km N of Blytheville, Arkansas 2.8 0072657265 km 161073462015-01-2021 18:17 map
41 km NNE of Toms Place, CA 2.2 0086858685 km 161073312815-01-2021 17:52 map
Island of Hawaii, Hawaii 2.2 01197811978 km 161073292815-01-2021 17:48 map
134 km E of Ust’-Kamchatsk Staryy, Russia 4.7 0079897989 km 161073197415-01-2021 17:32 map
28 km SSE of Mina, Nevada 2.4 0086408640 km 161073154115-01-2021 17:25 map
16 km E of Ocotillo, CA 2.3 0090309030 km 161073114115-01-2021 17:19 map
16 km E of Ocotillo, CA 2.1 0090319031 km 161073079815-01-2021 17:13 map
off the coast of Central America 4.5 0091079107 km 161073054815-01-2021 17:09 map
8 km SSE of Guánica, Puerto Rico 2.5 0071647164 km 161072732415-01-2021 16:15 map
47 km SSW of Champerico, Guatemala 5.9 0092569256 km 161072705115-01-2021 16:10 map
4 km SW of Guánica, Puerto Rico 2.6 0071637163 km 161072703215-01-2021 16:10 map
39 km SE of Mina, Nevada 2.3 0086218621 km 161072682115-01-2021 16:07 map
7 km ENE of Pāhala, Hawaii 2.2 01197411974 km 161072661015-01-2021 16:03 map
39 km SE of Mina, Nevada 2.4 0086218621 km 161072620115-01-2021 15:56 map
169 km SW of Kavieng, Papua New Guinea 5.1 01383613836 km 161072597015-01-2021 15:52 map
10 km E of Pāhala, Hawaii 2.7 01197411974 km 161072580715-01-2021 15:50 map
39 km SE of Mina, Nevada 3.9 0086218621 km 161072554515-01-2021 15:45 map
13 km N of Beluga, Alaska 2.2 0073587358 km 161072253015-01-2021 14:55 map
72 km SSE of Toba, Japan 5.2 0095229522 km 161071789915-01-2021 13:38 map
28 km SSE of Mina, Nevada 2.7 0086408640 km 161071693515-01-2021 13:22 map
southern Mid-Atlantic Ridge 5.2 01000210002 km 161071675115-01-2021 13:19 map
10 km ENE of Pāhala, Hawaii 2.3 01197311973 km 161071605615-01-2021 13:07 map
35 km NNE of Otra Banda, Dominican Republic 3.6 0071917191 km 161071389315-01-2021 12:31 map
28 km SW of Dillon, Montana 2.0 0077667766 km 161071362515-01-2021 12:27 map
9 km ENE of Pāhala, Hawaii 2.5 01197511975 km 161071325715-01-2021 12:20 map
Southern Alaska 2.1 0072427242 km 161071313315-01-2021 12:18 map
9 km ENE of Pāhala, Hawaii 2.1 01197311973 km 161071189615-01-2021 11:58 map
47 km S of Sinabang, Indonesia 4.7 0099739973 km 161071010615-01-2021 11:28 map
4 km SSE of Magas Arriba, Puerto Rico 2.0 0071477147 km 161071007915-01-2021 11:27 map
30 km WNW of Willow, Alaska 2.4 0072867286 km 161070949315-01-2021 11:18 map
7 km SE of Maria Antonia, Puerto Rico 2.4 0071587158 km 161070929515-01-2021 11:14 map
31 km E of Rio Dell, CA 2.3 0086788678 km 161070814915-01-2021 10:55 map
southern Mid-Atlantic Ridge 5.4 01001310013 km 161070752115-01-2021 10:45 map
10 km E of Pāhala, Hawaii 2.2 01197511975 km 161070744815-01-2021 10:44 map
10 km E of Pāhala, Hawaii 2.3 01197511975 km 161070704315-01-2021 10:37 map
15 km NW of Esmeraldas, Ecuador 4.7 0094999499 km 161070691715-01-2021 10:35 map
19 km NNE of Ashford, Washington 2.4 0079907990 km 161070521015-01-2021 10:06 map
49 km S of Obihiro, Japan 4.8 0089018901 km 161070000615-01-2021 08:40 map
40 km NNE of Toms Place, CA 2.0 0086868686 km 161069984615-01-2021 08:37 map
8 km NNE of New Idria, CA 2.0 0089188918 km 161069942615-01-2021 08:30 map
52 km SE of Boca de Yuma, Dominican Republic 3.4 0072437243 km 161069929815-01-2021 08:28 map
8 km ENE of Pāhala, Hawaii 2.0 01197311973 km 161069922515-01-2021 08:27 map
2 km S of Pāhala, Hawaii 2.0 01198111981 km 161069893415-01-2021 08:22 map
Halmahera, Indonesia 4.8 01207112071 km 161069887315-01-2021 08:21 map
off the coast of Oregon 3.8 0085178517 km 161069781915-01-2021 08:03 map
southern Mid-Atlantic Ridge 4.9 01003510035 km 161069714215-01-2021 07:52 map
Tristan da Cunha region 5.0 0096889688 km 161069618515-01-2021 07:36 map
17 km W of Furnace Creek, CA 2.3 0087488748 km 161069483715-01-2021 07:13 map
15 km ENE of Crescent Valley, Nevada 2.4 0083468346 km 161069275215-01-2021 06:39 map
10 km NE of Point Possession, Alaska 2.1 0073807380 km 161069134615-01-2021 06:15 map
Puerto Rico region 2.2 0071657165 km 161069125915-01-2021 06:14 map
18 km SSE of Big Bear Lake, CA 2.0 0089588958 km 161069074815-01-2021 06:05 map
8 km ENE of Pāhala, Hawaii 2.0 01197211972 km 161069014615-01-2021 05:55 map
22 km E of Susitna North, Alaska 2.1 0072397239 km 161068967715-01-2021 05:47 map
40 km E of Denali National Park, Alaska 2.1 0071137113 km 161068846815-01-2021 05:27 map
9 km ENE of Pāhala, Hawaii 2.2 01197211972 km 161068804715-01-2021 05:20 map
15 km E of Ferry, Alaska 2.0 0070297029 km 161068801515-01-2021 05:20 map
49 km N of Valdez, Alaska 2.0 0072487248 km 161068793615-01-2021 05:18 map
31 km W of Susitna, Alaska 2.2 0073247324 km 161068759815-01-2021 05:13 map
18 km WSW of Round Valley, CA 2.2 0087478747 km 161068607715-01-2021 04:47 map
30 km SW of Skwentna, Alaska 2.3 0073097309 km 161068606915-01-2021 04:47 map
6 km SSW of Indios, Puerto Rico 2.6 0071567156 km 161068466715-01-2021 04:24 map
77 km S of Champerico, Guatemala 4.4 0092639263 km 161068445415-01-2021 04:20 map
8 km ENE of Pāhala, Hawaii 4.0 01197511975 km 161068410715-01-2021 04:15 map
5 km SE of Maria Antonia, Puerto Rico 2.5 0071577157 km 161068213515-01-2021 03:42 map
87 km SSW of Sofifi, Indonesia 4.7 01223912239 km 161067905415-01-2021 02:50 map
2 km SW of Indios, Puerto Rico 2.2 0071537153 km 161067841215-01-2021 02:40 map
24 km N of Sussex, Canada 2.2 0049904990 km 161067781515-01-2021 02:30 map
3 km S of Guánica, Puerto Rico 2.2 0071617161 km 161067619115-01-2021 02:03 map
27 km SSE of Nelchina, Alaska 2.2 0072337233 km 161067609215-01-2021 02:01 map
2 km WSW of Indios, Puerto Rico 2.1 0071537153 km 161067506615-01-2021 01:44 map
145 km S of Boca de Yuma, Dominican Republic 3.4 0073397339 km 161067315915-01-2021 01:12 map
158 km SSE of Nikolski, Alaska 3.8 0085948594 km 161067240815-01-2021 01:00 map
53 km WNW of Happy Valley, Alaska 2.0 0075127512 km 161067192015-01-2021 00:52 map
2 km SW of Indios, Puerto Rico 2.3 0071537153 km 161067133715-01-2021 00:42 map
18 km WSW of Round Valley, CA 2.0 0087478747 km 161067093215-01-2021 00:35 map
2 km SW of Indios, Puerto Rico 2.2 0071537153 km 161067074215-01-2021 00:32 map
1 km WNW of Lluveras, Puerto Rico 2.9 0071537153 km 161066847814-01-2021 23:54 map
4 km ENE of Magna, Utah 2.0 0081118111 km 161066708414-01-2021 23:31 map
20 km SW of Panhandle, Texas 2.9 0080248024 km 161066701014-01-2021 23:30 map
5 km ESE of Maria Antonia, Puerto Rico 2.2 0071567156 km 161066598914-01-2021 23:13 map
66 km WNW of Nikiski, Alaska 2.1 0074277427 km 161066400514-01-2021 22:40 map
75 km ENE of Teller, Alaska 2.6 0070527052 km 161066381714-01-2021 22:36 map
119 km SSE of Ugashik, Alaska 3.6 0079407940 km 161066349914-01-2021 22:31 map
12 km S of Funny River, Alaska 2.0 0074467446 km 161066291514-01-2021 22:21 map
5 km SE of Maria Antonia, Puerto Rico 2.6 0071587158 km 161065669014-01-2021 20:38 map
39 km NNW of Turt, Mongolia 4.5 0061546154 km 161065599914-01-2021 20:26 map
13 km E of Blue Lake, CA 2.4 0086438643 km 161065507214-01-2021 20:11 map
50 km SSE of Glacier View, Alaska 2.9 0072827282 km 161065381814-01-2021 19:50 map
6 km S of Guánica, Puerto Rico 2.4 0071637163 km 161065356014-01-2021 19:46 map
131 km E of McCarthy, Alaska 2.1 0071427142 km 161065283114-01-2021 19:33 map
33 km SSW of Turt, Mongolia 4.3 0062066206 km 161065259114-01-2021 19:29 map
2 km WNW of Concord, CA 2.1 0088418841 km 161065238414-01-2021 19:26 map
7 km WSW of Guánica, Puerto Rico 2.9 0071657165 km 161065204814-01-2021 19:20 map
2 km W of Concord, CA 3.6 0088428842 km 161065189014-01-2021 19:18 map
135 km E of McCarthy, Alaska 2.6 0071527152 km 161065186814-01-2021 19:17 map
24 km WNW of Volcano, Hawaii 2.5 01194611946 km 161065026314-01-2021 18:51 map
25 km WNW of Volcano, Hawaii 2.1 01194511945 km 161065019014-01-2021 18:49 map
4 km SSE of Pāhala, Hawaii 2.0 01198211982 km 161064959814-01-2021 18:39 map
4 km S of Pāhala, Hawaii 2.1 01198311983 km 161064939414-01-2021 18:36 map
1 km SE of Pāhala, Hawaii 2.4 01198011980 km 161064928514-01-2021 18:34 map
185 km WSW of Yakutat, Alaska 2.9 0074557455 km 161064923614-01-2021 18:33 map
32 km S of Mamuju, Indonesia 6.2 01196411964 km 161064889814-01-2021 18:28 map
6 km ESE of La Parguera, Puerto Rico 2.2 0071667166 km 161064889214-01-2021 18:28 map
Greenland Sea 4.3 0025272527 km 161064483014-01-2021 17:20 map
140 km SW of Singkil, Indonesia 4.6 01008010080 km 161064305914-01-2021 16:50 map
118 km NW of Hirara, Japan 4.7 0097049704 km 161064169014-01-2021 16:28 map
Off the coast of Aisen, Chile 4.7 01335513355 km 161063910314-01-2021 15:45 map
4 km ESE of Pāhala, Hawaii 2.0 01198011980 km 161063768014-01-2021 15:21 map
100 km SE of Sand Point, Alaska 2.2 0081968196 km 161063482114-01-2021 14:33 map
7 km ESE of La Parguera, Puerto Rico 2.5 0071667166 km 161063465314-01-2021 14:30 map
85 km NW of Elfin Cove, Alaska 2.7 0073577357 km 161063190714-01-2021 13:45 map
4 km SW of Fuig, Puerto Rico 2.6 0071637163 km 161063102014-01-2021 13:30 map
3 km SSW of Indios, Puerto Rico 2.6 0071547154 km 161062644014-01-2021 12:14 map
158 km S of Ōyama, Japan 4.1 0096479647 km 161062302414-01-2021 11:17 map
16 km ENE of Náfpaktos, Greece 4.2 0019531953 km 161062136114-01-2021 10:49 map
99 km N of Charlotte Amalie, U.S. Virgin Islands 3.4 0069246924 km 161061582614-01-2021 09:17 map
144 km SE of Atlasovo, Russia 4.3 0080918091 km 161061537014-01-2021 09:09 map
3 km SSW of Guánica, Puerto Rico 2.3 0071637163 km 161061431614-01-2021 08:51 map
7 km ESE of La Parguera, Puerto Rico 2.5 0071657165 km 161061332714-01-2021 08:35 map
14 km S of Volcano, Hawaii 2.6 01196011960 km 161061142014-01-2021 08:03 map
30 km SE of Mina, Nevada 2.3 0086288628 km 161061026714-01-2021 07:44 map
3 km SW of Indios, Puerto Rico 2.1 0071547154 km 161060764014-01-2021 07:00 map
31 km S of Mamuju, Indonesia 5.7 01196311963 km 161060615014-01-2021 06:35 map
95 km SE of King Cove, Alaska 3.7 0082178217 km 161060597514-01-2021 06:32 map
10 km NNW of Tatitlek, Alaska 2.1 0073197319 km 161060392814-01-2021 05:58 map
79 km S of Atka, Alaska 4.9 0086348634 km 161060123014-01-2021 05:13 map
11 km SSE of Esbon, Kansas 2.8 0074637463 km 161060072114-01-2021 05:05 map
67 km W of Happy Valley, Alaska 2.3 0075177517 km 161059628514-01-2021 03:51 map
58 km NNE of Kobuk, Alaska 2.5 0067716771 km 161059445314-01-2021 03:20 map
0 km NNE of Guayanilla, Puerto Rico 2.1 0071467146 km 161059391814-01-2021 03:11 map
4 km ESE of Pāhala, Hawaii 2.0 01197911979 km 161059342914-01-2021 03:03 map
5 km E of Pāhala, Hawaii 2.0 01197811978 km 161059288114-01-2021 02:54 map
15 km WNW of Progreso, B.C., MX 2.2 0090359035 km 161059126314-01-2021 02:27 map
3 km ESE of La Parguera, Puerto Rico 2.5 0071677167 km 161059121814-01-2021 02:26 map
8 km SE of Maria Antonia, Puerto Rico 2.5 0071597159 km 161059084114-01-2021 02:20 map
13 km SSE of Fern Forest, Hawaii 2.8 01195411954 km 161058805214-01-2021 01:34 map
26 km SSE of Mina, Nevada 2.0 0086348634 km 161058732214-01-2021 01:22 map
8 km ENE of Pāhala, Hawaii 2.2 01197311973 km 161058653514-01-2021 01:08 map
98 km SSE of Ugashik, Alaska 2.5 0079297929 km 161058465714-01-2021 00:37 map
4 km SSE of Guánica, Puerto Rico 3.2 0071617161 km 161058462514-01-2021 00:37 map
20 km ESE of Little Lake, CA 2.2 0088358835 km 161058443314-01-2021 00:33 map
10 km S of Guánica, Puerto Rico 2.6 0071657165 km 161058426914-01-2021 00:31 map
2 km S of Indios, Puerto Rico 2.4 0071537153 km 161058205313-01-2021 23:54 map
41 km ENE of Susitna North, Alaska 2.1 0072147214 km 161057972513-01-2021 23:15 map
Greenland Sea 4.4 0025342534 km 161057951513-01-2021 23:11 map
76 km ENE of Mīnāb, Iran 4.3 0051535153 km 161057864013-01-2021 22:57 map
17 km N of Mosquito Lake, Alaska 2.0 0072197219 km 161057723913-01-2021 22:33 map
6 km SW of La Parguera, Puerto Rico 2.5 0071747174 km 161057585113-01-2021 22:10 map
98 km W of Tyonek, Alaska 2.7 0073957395 km 161057517813-01-2021 21:59 map
16 km E of Ocotillo, CA 2.2 0090319031 km 161057456213-01-2021 21:49 map
35 km ESE of Uyuni, Bolivia 4.1 01051310513 km 161057283113-01-2021 21:20 map
62 km WSW of Cantwell, Alaska 2.7 0071347134 km 161057223613-01-2021 21:10 map
71 km WSW of Cantwell, Alaska 2.5 0071407140 km 161057221613-01-2021 21:10 map
13 km SE of Pinnacles, CA 2.0 0089388938 km 161057121113-01-2021 20:53 map
25 km SE of Emajagua, Puerto Rico 2.2 0070837083 km 161056983713-01-2021 20:30 map
63 km W of Cantwell, Alaska 2.0 0071107110 km 161056895713-01-2021 20:15 map
4 km SSW of Indios, Puerto Rico 2.4 0071557155 km 161056151013-01-2021 18:11 map
19 km SE of Tobelo, Indonesia 5.2 01214512145 km 161055918413-01-2021 17:33 map
1 km ESE of Pāhala, Hawaii 2.3 01197911979 km 161055881713-01-2021 17:26 map
4 km E of Pāhala, Hawaii 2.3 01197811978 km 161055814913-01-2021 17:15 map
149 km W of Trinidad, CA 3.5 0086918691 km 161055556013-01-2021 16:32 map
10 km WNW of Stanley, Idaho 2.3 0079367936 km 161055448413-01-2021 16:14 map
20 km NW of Kandrian, Papua New Guinea 4.9 01408214082 km 161055375613-01-2021 16:02 map
297 km ENE of Lospalos, Timor Leste 4.5 01303113031 km 161055278613-01-2021 15:46 map
9 km ENE of Pāhala, Hawaii 2.2 01197211972 km 161055032513-01-2021 15:05 map
1 km ESE of Pāhala, Hawaii 2.4 01197911979 km 161054819313-01-2021 14:29 map
16 km WNW of Progreso, B.C., MX 2.3 0090359035 km 161054628013-01-2021 13:58 map
121 km E of McCarthy, Alaska 2.6 0071447144 km 161054459513-01-2021 13:29 map
4 km SSE of Pāhala, Hawaii 2.0 01198311983 km 161054180613-01-2021 12:43 map
8 km ENE of Pāhala, Hawaii 2.0 01197311973 km 161054009413-01-2021 12:14 map
55 km S of Whites City, New Mexico 2.8 0085008500 km 161053970513-01-2021 12:08 map
16 km SSW of Volcano, Hawaii 2.1 01196411964 km 161053926613-01-2021 12:01 map
7 km SE of Maria Antonia, Puerto Rico 3.2 0071587158 km 161053923713-01-2021 12:00 map
4 km WSW of Guánica, Puerto Rico 2.2 0071637163 km 161053899413-01-2021 11:56 map
79 km N of Chickaloon, Alaska 2.3 0071827182 km 161053896113-01-2021 11:56 map
3 km SSE of Pāhala, Hawaii 2.5 01198111981 km 161053793513-01-2021 11:38 map
35 km W of Chilecito, Argentina 4.3 01135111351 km 161053776613-01-2021 11:36 map
10 km ENE of Pāhala, Hawaii 2.0 01197211972 km 161053660613-01-2021 11:16 map
3 km SSE of Pāhala, Hawaii 2.4 01198111981 km 161053621613-01-2021 11:10 map
27 km WNW of Turt, Mongolia 4.9 0061686168 km 161053621013-01-2021 11:10 map
33 km SE of Mina, Nevada 2.4 0086328632 km 161053608613-01-2021 11:08 map
39 km WNW of Skwentna, Alaska 2.6 0072797279 km 161053354513-01-2021 10:25 map
3 km ENE of La Parguera, Puerto Rico 2.9 0071657165 km 161053297313-01-2021 10:16 map
7 km SW of Petrolia, CA 2.5 0087228722 km 161053201813-01-2021 10:00 map
12 km NNE of Kamárai, Greece 4.5 0019601960 km 161053082213-01-2021 09:40 map
34 km NW of Sussex, Canada 2.1 0050135013 km 161052930413-01-2021 09:15 map
6 km NE of Kamárai, Greece 4.1 0019661966 km 161052876813-01-2021 09:06 map
40 km NNE of Toms Place, CA 2.4 0086868686 km 161052870013-01-2021 09:05 map
67 km W of San Antonio de los Cobres, Argentina 4.4 01085910859 km 161052733613-01-2021 08:42 map
6 km WNW of Stanley, Idaho 2.3 0079387938 km 161052645913-01-2021 08:27 map
10 km SSE of San Juan Bautista, CA 2.9 0089308930 km 161052639113-01-2021 08:26 map
14 km SSW of Searles Valley, CA 2.5 0088438843 km 161052609013-01-2021 08:21 map
91 km N of Charlotte Amalie, U.S. Virgin Islands 3.4 0069276927 km 161052411413-01-2021 07:48 map
43 km NNE of Chase, Alaska 2.0 0071747174 km 161052314213-01-2021 07:32 map
11 km WNW of Caimancito, Argentina 4.6 01067610676 km 161051923513-01-2021 06:27 map
54 km SSW of Bengkulu, Indonesia 4.6 01091810918 km 161051870313-01-2021 06:18 map
5 km S of Pāhala, Hawaii 2.0 01198411984 km 161051793013-01-2021 06:05 map
4 km SE of Pāhala, Hawaii 2.1 01198011980 km 161051411513-01-2021 05:01 map
11 km SSE of Guánica, Puerto Rico 2.5 0071647164 km 161051388813-01-2021 04:58 map
20 km WSW of Petrolia, CA 2.7 0087298729 km 161051114313-01-2021 04:12 map
7 km W of Holtville, CA 2.5 0090069006 km 161051018013-01-2021 03:56 map
7 km NNW of Stanley, Idaho 2.3 0079317931 km 161051004013-01-2021 03:54 map
12 km NE of Napa, CA 2.1 0088108810 km 161050329213-01-2021 02:01 map
Maug Islands region, Northern Mariana Islands 4.7 01132011320 km 161050196813-01-2021 01:39 map
2 km NNW of Kensington, CA 2.1 0088578857 km 161050119013-01-2021 01:26 map
141 km WNW of Tumaco, Colombia 4.7 0093869386 km 161050028213-01-2021 01:11 map
92 km NW of Yakutat, Alaska 2.1 0072877287 km 161049823313-01-2021 00:37 map
39 km N of Culebra, Puerto Rico 3.8 0069896989 km 161049223112-01-2021 22:57 map
11 km NNE of Kamárai, Greece 4.7 0019621962 km 161049220812-01-2021 22:56 map
9 km NNE of Kamárai, Greece 4.7 0019611961 km 161049057812-01-2021 22:29 map
7 km SE of Maria Antonia, Puerto Rico 2.3 0071587158 km 161048943012-01-2021 22:10 map
15 km NNE of Kamárai, Greece 5.2 0019581958 km 161048939712-01-2021 22:09 map
35 km SW of Turt, Mongolia 4.4 0061926192 km 161048853312-01-2021 21:55 map
14 km W of Lakeport, CA 2.3 0087878787 km 161048535712-01-2021 21:02 map
52 km ENE of Pedro Bay, Alaska 2.2 0075367536 km 161048295712-01-2021 20:22 map
4 km SE of Pāhala, Hawaii 2.1 01198111981 km 161048272212-01-2021 20:18 map
7 km S of Tallaboa, Puerto Rico 2.0 0071507150 km 161048230312-01-2021 20:11 map
5 km SSW of Palmarejo, Puerto Rico 2.5 0071707170 km 161048191412-01-2021 20:05 map
6 km NE of Chatsworth, CA 2.2 0090249024 km 161048174512-01-2021 20:02 map
46 km W of Petrolia, CA 2.9 0087398739 km 161047755112-01-2021 18:52 map
154 km ENE of Nabire, Indonesia 5.9 01310613106 km 161047545612-01-2021 18:17 map
90 km N of Charlotte Amalie, U.S. Virgin Islands 3.5 0069176917 km 161047395112-01-2021 17:52 map
17 km NE of Ambunti, Papua New Guinea 4.4 01355013550 km 161047129512-01-2021 17:08 map
4 km E of Pāhala, Hawaii 2.1 01197811978 km 161046988012-01-2021 16:44 map
39 km NW of Indian Springs, Nevada 2.2 0086598659 km 161046936112-01-2021 16:36 map
34 km SE of Mina, Nevada 2.2 0086298629 km 161046910512-01-2021 16:31 map
36 km WSW of Turt, Mongolia 4.5 0061786178 km 161046907612-01-2021 16:31 map
Island of Hawaii, Hawaii 2.6 01197211972 km 161046866012-01-2021 16:24 map
Southern Alaska 2.0 0072977297 km 161046827812-01-2021 16:17 map
1 km W of Guánica, Puerto Rico 2.4 0071607160 km 161046784212-01-2021 16:10 map
6 km SSW of Pāhala, Hawaii 2.2 01198511985 km 161046668012-01-2021 15:51 map
119 km SSE of Sand Point, Alaska 4.5 0082208220 km 161046651412-01-2021 15:48 map
40 km NNE of Chase, Alaska 2.1 0071787178 km 161046543412-01-2021 15:30 map
108 km SSW of La Esperanza (El Zapotal), Mexico 4.2 0093029302 km 161046541812-01-2021 15:30 map
56 km S of Whites City, New Mexico 2.5 0085008500 km 161046415712-01-2021 15:09 map
119 km SSE of Sand Point, Alaska 3.9 0082218221 km 161046078712-01-2021 14:13 map
Puerto Rico region 3.1 0071567156 km 161046022012-01-2021 14:03 map
67 km NNW of Davila, Philippines 5.0 01006210062 km 161045869312-01-2021 13:38 map
59 km WSW of Tatitlek, Alaska 2.1 0073737373 km 161045804612-01-2021 13:27 map
77 km W of Petrolia, CA 4.3 0087478747 km 161045772612-01-2021 13:22 map
20 km SE of Kasilof, Alaska 2.4 0074667466 km 161045756312-01-2021 13:19 map
55 km WNW of Beluga, Alaska 2.4 0073727372 km 161045535512-01-2021 12:42 map
27 km NW of Neyshābūr, Iran 4.3 0045374537 km 161045381412-01-2021 12:16 map
44 km N of Petersville, Alaska 2.0 0071827182 km 161045300012-01-2021 12:03 map
85 km NE of Tobelo, Indonesia 4.6 01211412114 km 161045229112-01-2021 11:51 map
10 km E of Pāhala, Hawaii 2.1 01197411974 km 161045059212-01-2021 11:23 map
84 km NNE of Calama, Chile 4.9 01074810748 km 161044947612-01-2021 11:04 map
12 km NNE of Houston, Alaska 2.4 0072877287 km 161044922812-01-2021 11:00 map
48 km E of Valdez, Alaska 2.0 0072807280 km 161044853112-01-2021 10:48 map
6 km S of Magas Arriba, Puerto Rico 2.9 0071507150 km 161044789112-01-2021 10:38 map
59 km WNW of Aitape, Papua New Guinea 4.5 01337313373 km 161044699512-01-2021 10:23 map
137 km S of Sarangani, Philippines 5.2 01174011740 km 161044631512-01-2021 10:11 map
36 km SE of Mina, Nevada 2.2 0086248624 km 161044611012-01-2021 10:08 map
32 km SW of Turt, Mongolia 4.4 0061896189 km 161044527612-01-2021 09:54 map
5 km WSW of Guánica, Puerto Rico 2.4 0071647164 km 161044431512-01-2021 09:38 map
89 km W of Skwentna, Alaska 2.0 0072967296 km 161044422012-01-2021 09:37 map
43 km W of Susitna, Alaska 2.1 0073347334 km 161044410112-01-2021 09:35 map
5 km SSE of Guánica, Puerto Rico 3.0 0071617161 km 161044403612-01-2021 09:33 map
40 km NNE of Toms Place, CA 2.0 0086868686 km 161044364412-01-2021 09:27 map
15 km E of Ocotillo, CA 2.0 0090319031 km 161044340612-01-2021 09:23 map
1 km NE of Quinton, Oklahoma 2.1 0076667666 km 161044313612-01-2021 09:18 map
8 km SSE of Kasilof, Alaska 2.1 0074667466 km 161044285412-01-2021 09:14 map
49 km SSW of Turt, Mongolia 4.7 0062056205 km 161044252512-01-2021 09:08 map
74 km NW of Yoichi, Japan 4.1 0086748674 km 161044096712-01-2021 08:42 map
14 km SW of Weston, Colorado 2.0 0080628062 km 161043826812-01-2021 07:57 map
153 km ESE of Iquique, Chile 4.1 01069010690 km 161043811112-01-2021 07:55 map
6 km SSW of Thatcher, Utah 2.0 0080428042 km 161043682612-01-2021 07:33 map
52 km E of Pedro Bay, Alaska 2.3 0075527552 km 161043656312-01-2021 07:29 map
6 km SSW of Himarë, Albania 4.4 0016901690 km 161043639412-01-2021 07:26 map
5 km SSW of Thatcher, Utah 2.9 0080428042 km 161043610312-01-2021 07:21 map
87 km SW of La Esperanza (El Zapotal), Mexico 4.9 0092839283 km 161043185512-01-2021 06:10 map
21 km WNW of Ninilchik, Alaska 2.0 0074957495 km 161043123212-01-2021 06:00 map
Puerto Rico region 2.1 0071607160 km 161042985512-01-2021 05:37 map
30 km SSE of Jurm, Afghanistan 4.4 0053865386 km 161042683712-01-2021 04:47 map
4 km S of Indios, Puerto Rico 2.1 0071547154 km 161042514912-01-2021 04:19 map
143 km S of Ōyama, Japan 4.2 0096269626 km 161042376312-01-2021 03:56 map
70 km WSW of Ambon, Indonesia 4.6 01263212632 km 161042319712-01-2021 03:46 map
12 km WSW of Petrolia, CA 3.2 0087258725 km 161042190812-01-2021 03:25 map
82 km E of Cantwell, Alaska 2.3 0070607060 km 161042062612-01-2021 03:03 map
80 km NW of Yoichi, Japan 5.9 0086678667 km 161041918312-01-2021 02:39 map
116 km SW of Pole Ojea, Puerto Rico 3.5 0072957295 km 161041807512-01-2021 02:21 map
33 km SSW of Mina, Nevada 2.2 0086518651 km 161041669712-01-2021 01:58 map
38 km W of Turt, Mongolia 4.7 0061596159 km 161041619412-01-2021 01:49 map
39 km WNW of Turt, Mongolia 4.5 0061546154 km 161041383212-01-2021 01:10 map
9 km SSE of Maria Antonia, Puerto Rico 2.7 0071597159 km 161041336012-01-2021 01:02 map
1 km WSW of Indios, Puerto Rico 2.5 0071527152 km 161041237912-01-2021 00:46 map
83 km NNW of Aleneva, Alaska 2.1 0076667666 km 161041217012-01-2021 00:42 map
5 km SE of Maria Antonia, Puerto Rico 2.5 0071577157 km 161041201412-01-2021 00:40 map
42 km SW of Turt, Mongolia 4.8 0061936193 km 161041177112-01-2021 00:36 map
38 km WSW of Turt, Mongolia 4.5 0061706170 km 161041164512-01-2021 00:34 map
8 km SE of Maria Antonia, Puerto Rico 3.1 0071597159 km 161041133712-01-2021 00:28 map
4 km ESE of Mentone, CA 2.0 0089748974 km 161041126312-01-2021 00:27 map
6 km SSW of Indios, Puerto Rico 2.5 0071577157 km 161041105912-01-2021 00:24 map
102 km WNW of Yakutat, Alaska 2.1 0073217321 km 161040961912-01-2021 00:00 map
7 km S of Guánica, Puerto Rico 2.6 0071657165 km 161040958111-01-2021 23:59 map
70 km NW of Rincón, Puerto Rico 3.1 0071477147 km 161040732411-01-2021 23:22 map
14 km NW of Stanley, Idaho 2.4 0079337933 km 161040717911-01-2021 23:19 map
29 km WSW of Turt, Mongolia 5.0 0061756175 km 161040614411-01-2021 23:02 map
59 km SSW of Turt, Mongolia 4.4 0062186218 km 161040506111-01-2021 22:44 map
41 km SSW of Turt, Mongolia 4.5 0061976197 km 161040376411-01-2021 22:22 map
37 km ENE of Cantwell, Alaska 2.6 0070807080 km 161040343911-01-2021 22:17 map
16 km NE of Little Lake, CA 2.1 0088238823 km 161040338211-01-2021 22:16 map
12 km ENE of Ridgecrest, CA 2.3 0088488848 km 161040313511-01-2021 22:12 map
38 km WNW of Willow, Alaska 2.5 0072807280 km 161040298011-01-2021 22:09 map
44 km SW of Turt, Mongolia 5.0 0061946194 km 161040257611-01-2021 22:02 map
25 km S of Mina, Nevada 2.2 0086388638 km 161040244211-01-2021 22:00 map
23 km SSW of Turt, Mongolia 5.2 0061986198 km 161040197911-01-2021 21:52 map
33 km SSW of Turt, Mongolia 6.7 0061996199 km 161040077811-01-2021 21:32 map
111 km SE of Perryville, Alaska 4.2 0081078107 km 161039982611-01-2021 21:17 map
51 km W of Tiksi, Russia 4.3 0056875687 km 161039872511-01-2021 20:58 map
46 km WNW of Fry, Greece 4.1 0024482448 km 161039754111-01-2021 20:39 map
7 km NE of Mayfield, Kansas 2.6 0076137613 km 161039662811-01-2021 20:23 map
10 km ENE of Pāhala, Hawaii 2.2 01197211972 km 161039626111-01-2021 20:17 map
east of the South Sandwich Islands 5.5 01217612176 km 161039427611-01-2021 19:44 map
22 km E of Pedro Bay, Alaska 3.5 0075567556 km 161039348011-01-2021 19:31 map
70 km NW of Torbat-e Jām, Iran 4.4 0046914691 km 161039327011-01-2021 19:27 map
Island of Hawaii, Hawaii 2.3 01195711957 km 161038927811-01-2021 18:21 map
262 km ESE of Chiniak, Alaska 3.0 0077677767 km 161038927211-01-2021 18:21 map
80 km WSW of Tobelo, Indonesia 4.4 01210312103 km 161038851711-01-2021 18:08 map
3 km SE of Maria Antonia, Puerto Rico 2.2 0071577157 km 161038749611-01-2021 17:51 map
Puerto Rico region 2.6 0071467146 km 161038677011-01-2021 17:39 map
4 km S of Pāhala, Hawaii 2.3 01198211982 km 161038585311-01-2021 17:24 map
27 km WNW of Nanwalek, Alaska 2.2 0075667566 km 161038471011-01-2021 17:05 map
5 km SSE of Pāhala, Hawaii 2.1 01198311983 km 161038366511-01-2021 16:47 map
5 km WSW of Guánica, Puerto Rico 2.4 0071647164 km 161038318711-01-2021 16:39 map
50 km WNW of Happy Valley, Alaska 2.0 0075047504 km 161038286111-01-2021 16:34 map
9 km SSE of Maria Antonia, Puerto Rico 2.7 0071607160 km 161038159211-01-2021 16:13 map
59 km SW of Haines Junction, Canada 2.7 0072057205 km 161038100511-01-2021 16:03 map
4 km SW of Pāhala, Hawaii 2.0 01198311983 km 161038055711-01-2021 15:55 map
7 km SE of Maria Antonia, Puerto Rico 2.7 0071587158 km 161037864811-01-2021 15:24 map
7 km SE of Maria Antonia, Puerto Rico 3.0 0071587158 km 161037616511-01-2021 14:42 map
49 km WNW of Nanwalek, Alaska 3.4 0075777577 km 161037566411-01-2021 14:34 map
69 km W of Cantwell, Alaska 2.1 0071197119 km 161037521411-01-2021 14:26 map
14 km WSW of Kishtwār, India 5.1 0059495949 km 161037372211-01-2021 14:02 map
23 km N of Kishtwār, India 4.1 0059405940 km 161037355311-01-2021 13:59 map
9 km SW of Yosemite Lakes, CA 2.0 0088198819 km 161037283911-01-2021 13:47 map
2 km ESE of Quinton, Oklahoma 2.1 0076677667 km 161037273111-01-2021 13:45 map
6 km SSW of Guánica, Puerto Rico 2.7 0071657165 km 161037158411-01-2021 13:26 map
28 km SE of Vilyuchinsk, Russia 4.6 0082458245 km 161036980311-01-2021 12:56 map
67 km NW of Castelo Branco, Portugal 5.4 0029352935 km 161036922111-01-2021 12:47 map
132 km SW of Kokopo, Papua New Guinea 4.5 01409614096 km 161036884511-01-2021 12:40 map
1 km NW of Potala Pastillo, Puerto Rico 3.1 0071297129 km 161036844111-01-2021 12:34 map
11 km WSW of Searles Valley, CA 2.3 0088388838 km 161036639411-01-2021 11:59 map
5 km SE of Maria Antonia, Puerto Rico 2.9 0071577157 km 161036552311-01-2021 11:45 map
67 km E of McKinley Park, Alaska 3.0 0070347034 km 161036365611-01-2021 11:14 map
5 km S of Pāhala, Hawaii 2.0 01198411984 km 161036204511-01-2021 10:47 map
120 km ESE of Akutan, Alaska 4.2 0083338333 km 161036189711-01-2021 10:44 map
2 km NW of Indios, Puerto Rico 2.3 0071517151 km 161036120911-01-2021 10:33 map
Nevada 2.3 0086368636 km 161035982711-01-2021 10:10 map
1 km SW of Guánica, Puerto Rico 2.2 0071617161 km 161035943711-01-2021 10:03 map
2 km WNW of Indios, Puerto Rico 3.4 0071517151 km 161035853111-01-2021 09:48 map
39 km NW of Stanley, Idaho 2.7 0079227922 km 161035568811-01-2021 09:01 map
Puerto Rico region 2.2 0071487148 km 161035502311-01-2021 08:50 map
24 km WNW of Salamatof, Alaska 2.3 0074337433 km 161035437911-01-2021 08:39 map
8 km NE of Mayfield, Kansas 2.1 0076127612 km 161035378111-01-2021 08:29 map
6 km S of Guánica, Puerto Rico 2.6 0071657165 km 161035353611-01-2021 08:25 map
33 km SSE of Chickaloon, Alaska 2.4 0072847284 km 161034999111-01-2021 07:26 map
125 km ESE of Akutan, Alaska 5.1 0083368336 km 161034954511-01-2021 07:19 map
9 km ENE of Pāhala, Hawaii 2.4 01197211972 km 161034948811-01-2021 07:18 map
17 km ESE of Pāhala, Hawaii 2.5 01197911979 km 161034946111-01-2021 07:17 map
11 km SSE of Pāhala, Hawaii 2.3 01198711987 km 161034563911-01-2021 06:13 map
2 km WNW of Tallaboa, Puerto Rico 2.1 0071447144 km 161034532111-01-2021 06:08 map
6 km SE of Maria Antonia, Puerto Rico 2.1 0071587158 km 161034352311-01-2021 05:38 map
19 km NW of Hāwī, Hawaii 2.8 01186211862 km 161034317011-01-2021 05:32 map
4 km SE of La Parguera, Puerto Rico 2.1 0071687168 km 161034315611-01-2021 05:32 map
15 km E of Ocotillo, CA 2.2 0090319031 km 161034111711-01-2021 04:58 map
Bonin Islands, Japan region 4.4 01020010200 km 161034063511-01-2021 04:50 map
12 km SE of Bodfish, CA 2.0 0089048904 km 161034048211-01-2021 04:48 map
10 km N of Viola, CA 2.0 0085748574 km 161033922911-01-2021 04:27 map
26 km NW of Stanley, Idaho 2.0 0079327932 km 161033874711-01-2021 04:19 map
126 km WSW of Callao, Peru 4.7 01057410574 km 161033761111-01-2021 04:00 map
8 km NNW of Tiptonville, Tennessee 2.0 0071997199 km 161033627311-01-2021 03:37 map
8 km N of Truckee, CA 2.6 0086218621 km 161033165211-01-2021 02:20 map
5 km WSW of Fuig, Puerto Rico 2.3 0071637163 km 161033154211-01-2021 02:19 map
215 km N of Palu, Indonesia 5.2 01167711677 km 161033024711-01-2021 01:57 map
2 km NNE of Pinnacles, CA 2.1 0089358935 km 161032972611-01-2021 01:48 map
148 km N of Ruteng, Indonesia 4.8 01246412464 km 161032912711-01-2021 01:38 map
149 km N of Ruteng, Indonesia 5.6 01244612446 km 161032803811-01-2021 01:20 map
4 km SSW of Pāhala, Hawaii 2.1 01198311983 km 161032619611-01-2021 00:49 map
135 km NW of Hirara, Japan 4.9 0096789678 km 161032467611-01-2021 00:24 map
13 km SE of Laytonville, CA 2.0 0087478747 km 161032150510-01-2021 23:31 map
7 km WNW of Petrinja, Croatia 3.8 0010621062 km 161032128110-01-2021 23:28 map
5 km SSW of Pāhala, Hawaii 2.2 01198411984 km 161032069010-01-2021 23:18 map
2 km WNW of Gateway, Alaska 2.1 0072967296 km 161032047810-01-2021 23:14 map
10 km NE of Mayfield, Kansas 2.6 0076107610 km 161031919410-01-2021 22:53 map
60 km ESE of Denali National Park, Alaska 2.3 0071317131 km 161031902710-01-2021 22:50 map
7 km SE of Maria Antonia, Puerto Rico 2.1 0071587158 km 161031866710-01-2021 22:44 map
236 km SE of Chiniak, Alaska 3.3 0078817881 km 161031862010-01-2021 22:43 map
7 km SE of Maria Antonia, Puerto Rico 2.5 0071597159 km 161031844610-01-2021 22:40 map
15 km ENE of Gili Air, Indonesia 4.6 01224912249 km 161031841810-01-2021 22:40 map
34 km E of Calama, Chile 4.8 01080810808 km 161031666810-01-2021 22:11 map
7 km E of Pāhala, Hawaii 2.2 01197811978 km 161031576810-01-2021 21:56 map
47 km W of Susitna, Alaska 2.3 0073317331 km 161031504410-01-2021 21:44 map
8 km ENE of Pāhala, Hawaii 2.1 01197511975 km 161031488810-01-2021 21:41 map
56 km E of Pedro Bay, Alaska 2.5 0075517551 km 161031477510-01-2021 21:39 map
5 km ESE of Pāhala, Hawaii 2.0 01198011980 km 161031432210-01-2021 21:32 map
16 km E of Ocotillo, CA 2.1 0090319031 km 161031412510-01-2021 21:28 map
39 km E of Farkhār, Afghanistan 4.2 0053465346 km 161031249610-01-2021 21:01 map
47 km WNW of San Antonio de los Cobres, Argentina 4.7 01083910839 km 161031133710-01-2021 20:42 map
8 km N of Naalehu, Hawaii 2.6 01198711987 km 161030858410-01-2021 19:56 map
11 km W of Kalecik, Turkey 4.5 0025292529 km 161030838210-01-2021 19:53 map
70 km ESE of Denali National Park, Alaska 2.5 0071387138 km 161030827010-01-2021 19:51 map
41 km NNE of Chase, Alaska 2.0 0071777177 km 161030756910-01-2021 19:39 map
3 km NE of Tanaina, Alaska 2.4 0072907290 km 161030712910-01-2021 19:32 map
66 km N of Tierras Nuevas Poniente, Puerto Rico 3.1 0070397039 km 161030530610-01-2021 19:01 map
9 km SW of Tunnel Hill, Georgia 2.4 0070537053 km 161030344310-01-2021 18:30 map
1 km NW of Potala Pastillo, Puerto Rico 3.5 0071287128 km 161030275610-01-2021 18:19 map
16 km S of Hawthorne, Nevada 2.0 0086448644 km 161030267010-01-2021 18:17 map
16 km S of Hawthorne, Nevada 2.6 0086438643 km 161030249610-01-2021 18:14 map
43 km NE of Chenega, Alaska 2.4 0073937393 km 161030129410-01-2021 17:54 map
9 km ENE of Pāhala, Hawaii 2.0 01197211972 km 161030126210-01-2021 17:54 map
33 km SSE of Mina, Nevada 3.9 0086338633 km 161030087210-01-2021 17:47 map
58 km NW of Rampart, Alaska 2.9 0068656865 km 161030079610-01-2021 17:46 map
5 km SSW of Indios, Puerto Rico 2.2 0071567156 km 161029648510-01-2021 16:34 map
7 km ENE of Pāhala, Hawaii 2.4 01197411974 km 161029648310-01-2021 16:34 map
69 km SE of Denali National Park, Alaska 3.2 0071487148 km 161029581910-01-2021 16:23 map
42 km NW of Stanley, Idaho 2.5 0079207920 km 161029418510-01-2021 15:56 map
southern East Pacific Rise 5.6 01432414324 km 161029348810-01-2021 15:44 map
3 km ESE of Pāhala, Hawaii 2.3 01197911979 km 161029281310-01-2021 15:33 map
0 km ENE of Volcano, Hawaii 2.7 01194611946 km 161029170710-01-2021 15:15 map
40 km S of Jurm, Afghanistan 4.5 0053875387 km 161029168210-01-2021 15:14 map
130 km SSE of Alcan Border, Alaska 2.5 0071117111 km 161028780310-01-2021 14:10 map
81 km W of Akhiok, Alaska 3.5 0078797879 km 161028465410-01-2021 13:17 map
29 km N of Glacier View, Alaska 2.4 0072197219 km 161028411010-01-2021 13:08 map
25 km SE of Skwentna, Alaska 2.0 0072957295 km 161028372810-01-2021 13:02 map
71 km NNE of Chickaloon, Alaska 2.1 0071887188 km 161028192410-01-2021 12:32 map
157 km SE of Kokopo, Papua New Guinea 5.0 01417914179 km 161027938210-01-2021 11:49 map
5 km SW of Guánica, Puerto Rico 3.5 0071647164 km 161027542010-01-2021 10:43 map
28 km NW of Stanley, Idaho 2.2 0079317931 km 161027378810-01-2021 10:16 map
33 km SE of Mina, Nevada 2.5 0086298629 km 161027252110-01-2021 09:55 map
4 km E of Pāhala, Hawaii 2.1 01197711977 km 161027233810-01-2021 09:52 map
1 km NE of Quinton, Oklahoma 2.2 0076667666 km 161027127510-01-2021 09:34 map
Revilla Gigedo Islands region 4.3 0098579857 km 161027043710-01-2021 09:20 map
22 km WNW of Stanley, Idaho 2.4 0079387938 km 161027041210-01-2021 09:20 map
6 km WSW of Fuig, Puerto Rico 2.6 0071647164 km 161026921910-01-2021 09:00 map
30 km SSW of Cantwell, Alaska 2.3 0071297129 km 161026910110-01-2021 08:58 map
10 km SW of Niland, CA 2.1 0089788978 km 161026883510-01-2021 08:53 map
11 km WNW of Calipatria, CA 3.3 0089808980 km 161026686310-01-2021 08:21 map
9 km ENE of Pāhala, Hawaii 2.3 01197211972 km 161026684210-01-2021 08:20 map
41 km W of Santa Cruz, Chile 4.7 01206212062 km 161026651910-01-2021 08:15 map
11 km NNE of Willow, Alaska 2.3 0072797279 km 161026595110-01-2021 08:05 map
10 km SW of Niland, CA 2.2 0089798979 km 161026554110-01-2021 07:59 map
10 km WNW of Calipatria, CA 2.9 0089808980 km 161026210810-01-2021 07:01 map
23 km NE of Susitna North, Alaska 2.6 0072217221 km 161026180510-01-2021 06:56 map
7 km NE of Mayfield, Kansas 2.8 0076137613 km 161026153610-01-2021 06:52 map
3 km SE of Maria Antonia, Puerto Rico 2.1 0071587158 km 161026124910-01-2021 06:47 map
71 km ENE of Namie, Japan 4.5 0093229322 km 161026069910-01-2021 06:38 map
4 km E of Pāhala, Hawaii 2.2 01197711977 km 161025849110-01-2021 06:01 map
5 km S of Pāhala, Hawaii 2.1 01198411984 km 161025722010-01-2021 05:40 map
112 km N of Suárez, Puerto Rico 3.2 0069576957 km 161025642110-01-2021 05:27 map
8 km NE of Aguanga, CA 2.1 0090129012 km 161025601610-01-2021 05:20 map
22 km NW of Stanley, Idaho 2.0 0079357935 km 161025599410-01-2021 05:19 map
3 km E of Truckee, CA 2.0 0086278627 km 161025224310-01-2021 04:17 map
37 km WNW of San Antonio de los Cobres, Argentina 6.1 01082410824 km 161025085410-01-2021 03:54 map

591 earthquakes found. Click on location or map links for more details from the USGS


Map and data courtesy of United States Geological Survey

Script developed by  Saratoga-weather.org Adapted for the template by  Weerstation Leuven (version 3.21)

This is an optional block. Switch it on/off in your settings-file: $SITE['bannerTop'] = false; or $SITE['bannerBottom'] = false;

You can display ads, any other important text or photo’s using text / html or PHP code.

You can place one or more at the top and or bottom and it can all be different for content / size .